sensor_id;sensor_type;location;lat;lon;timestamp;temperature;humidity
5621;DHT22;2832;50.864;12.186;2023-03-11T01:22:04;9.40;99.90
5621;DHT22;2832;50.864;12.186;2023-03-11T01:24:32;9.40;99.90
5621;DHT22;2832;50.864;12.186;2023-03-11T01:27:01;9.40;99.90
5621;DHT22;2832;50.864;12.186;2023-03-11T01:29:29;9.40;99.90
5621;DHT22;2832;50.864;12.186;2023-03-11T01:31:57;9.30;99.90
5621;DHT22;2832;50.864;12.186;2023-03-11T01:34:25;9.30;99.90
5621;DHT22;2832;50.864;12.186;2023-03-11T01:36:53;9.30;99.90
5621;DHT22;2832;50.864;12.186;2023-03-11T01:39:23;9.30;99.90
5621;DHT22;2832;50.864;12.186;2023-03-11T01:41:51;9.20;99.90
5621;DHT22;2832;50.864;12.186;2023-03-11T01:44:21;9.20;99.90
5621;DHT22;2832;50.864;12.186;2023-03-11T01:49:54;9.20;99.90
5621;DHT22;2832;50.864;12.186;2023-03-11T01:52:23;9.20;99.90
5621;DHT22;2832;50.864;12.186;2023-03-11T01:54:53;9.20;99.90
5621;DHT22;2832;50.864;12.186;2023-03-11T01:57:20;9.20;99.90
5621;DHT22;2832;50.864;12.186;2023-03-11T01:59:51;9.20;99.90
5621;DHT22;2832;50.864;12.186;2023-03-11T02:02:22;9.10;99.90
5621;DHT22;2832;50.864;12.186;2023-03-11T02:04:53;9.10;99.90
5621;DHT22;2832;50.864;12.186;2023-03-11T02:07:22;9.10;99.90
5621;DHT22;2832;50.864;12.186;2023-03-11T02:09:51;9.10;99.90
5621;DHT22;2832;50.864;12.186;2023-03-11T02:12:20;9.00;99.90
5621;DHT22;2832;50.864;12.186;2023-03-11T02:14:50;9.10;99.90
5621;DHT22;2832;50.864;12.186;2023-03-11T02:17:20;9.10;99.90
5621;DHT22;2832;50.864;12.186;2023-03-11T05:22:01;8.50;99.90
5621;DHT22;2832;50.864;12.186;2023-03-11T05:24:30;8.50;99.90
5621;DHT22;2832;50.864;12.186;2023-03-11T05:26:58;8.50;99.90
5621;DHT22;2832;50.864;12.186;2023-03-11T05:29:27;8.50;99.90
5621;DHT22;2832;50.864;12.186;2023-03-11T05:31:55;8.50;99.90
5621;DHT22;2832;50.864;12.186;2023-03-11T05:34:23;8.50;99.90
5621;DHT22;2832;50.864;12.186;2023-03-11T05:36:50;8.40;99.90
5621;DHT22;2832;50.864;12.186;2023-03-11T05:39:19;8.30;99.90
5621;DHT22;2832;50.864;12.186;2023-03-11T05:41:47;8.20;99.90
5621;DHT22;2832;50.864;12.186;2023-03-11T05:44:15;8.20;99.90
5621;DHT22;2832;50.864;12.186;2023-03-11T05:46:43;8.10;99.90
5621;DHT22;2832;50.864;12.186;2023-03-11T05:49:10;8.10;99.90
5621;DHT22;2832;50.864;12.186;2023-03-11T05:51:38;8.40;99.90
5621;DHT22;2832;50.864;12.186;2023-03-11T05:54:06;8.50;99.90
5621;DHT22;2832;50.864;12.186;2023-03-11T05:56:41;8.50;99.90
5621;DHT22;2832;50.864;12.186;2023-03-11T05:59:10;8.50;99.90
5621;DHT22;2832;50.864;12.186;2023-03-11T06:01:39;8.40;99.90
5621;DHT22;2832;50.864;12.186;2023-03-11T06:04:08;8.30;99.90
5621;DHT22;2832;50.864;12.186;2023-03-11T06:06:37;8.20;99.90
5621;DHT22;2832;50.864;12.186;2023-03-11T06:09:06;8.10;99.90
5621;DHT22;2832;50.864;12.186;2023-03-11T06:11:34;8.00;99.90
5621;DHT22;2832;50.864;12.186;2023-03-11T06:14:03;7.90;99.90
5621;DHT22;2832;50.864;12.186;2023-03-11T06:16:31;7.80;99.90
5621;DHT22;2832;50.864;12.186;2023-03-11T06:18:59;7.70;99.90
5621;DHT22;2832;50.864;12.186;2023-03-11T06:21:27;7.70;99.90
5621;DHT22;2832;50.864;12.186;2023-03-11T06:23:55;7.70;99.90
5621;DHT22;2832;50.864;12.186;2023-03-11T06:26:23;7.70;99.90
5621;DHT22;2832;50.864;12.186;2023-03-11T06:28:51;7.70;99.90
5621;DHT22;2832;50.864;12.186;2023-03-11T06:31:22;7.60;99.90
5621;DHT22;2832;50.864;12.186;2023-03-11T06:33:51;7.60;99.90
5621;DHT22;2832;50.864;12.186;2023-03-11T06:36:22;7.60;99.90
5621;DHT22;2832;50.864;12.186;2023-03-11T06:38:50;7.50;99.90
5621;DHT22;2832;50.864;12.186;2023-03-11T06:41:18;7.50;99.90
5621;DHT22;2832;50.864;12.186;2023-03-11T06:43:46;7.50;99.90
5621;DHT22;2832;50.864;12.186;2023-03-11T06:46:16;7.60;99.90
5621;DHT22;2832;50.864;12.186;2023-03-11T06:48:46;7.50;99.90
5621;DHT22;2832;50.864;12.186;2023-03-11T06:51:18;7.50;99.90
5621;DHT22;2832;50.864;12.186;2023-03-11T06:53:48;7.50;99.90
5621;DHT22;2832;50.864;12.186;2023-03-11T06:56:17;7.50;99.90
5621;DHT22;2832;50.864;12.186;2023-03-11T06:58:45;7.50;99.90
5621;DHT22;2832;50.864;12.186;2023-03-11T07:01:14;7.40;99.90
5621;DHT22;2832;50.864;12.186;2023-03-11T07:03:42;7.40;99.90
5621;DHT22;2832;50.864;12.186;2023-03-11T07:06:15;7.50;99.90
5621;DHT22;2832;50.864;12.186;2023-03-11T07:08:45;7.40;99.90
5621;DHT22;2832;50.864;12.186;2023-03-11T07:11:15;7.40;99.90
5621;DHT22;2832;50.864;12.186;2023-03-11T07:13:44;7.30;99.90
5621;DHT22;2832;50.864;12.186;2023-03-11T07:16:13;7.30;99.90
5621;DHT22;2832;50.864;12.186;2023-03-11T07:18:42;7.30;99.90
5621;DHT22;2832;50.864;12.186;2023-03-11T08:22:55;7.00;99.90
5621;DHT22;2832;50.864;12.186;2023-03-11T08:25:23;7.00;99.90
5621;DHT22;2832;50.864;12.186;2023-03-11T08:27:51;7.10;99.90
5621;DHT22;2832;50.864;12.186;2023-03-11T08:30:19;7.10;99.90
5621;DHT22;2832;50.864;12.186;2023-03-11T08:32:48;7.10;99.90
5621;DHT22;2832;50.864;12.186;2023-03-11T08:35:16;7.10;99.90
5621;DHT22;2832;50.864;12.186;2023-03-11T08:37:45;7.10;99.90
5621;DHT22;2832;50.864;12.186;2023-03-11T08:40:15;7.10;99.90
5621;DHT22;2832;50.864;12.186;2023-03-11T08:42:43;7.10;99.90
5621;DHT22;2832;50.864;12.186;2023-03-11T08:45:11;7.10;99.90
5621;DHT22;2832;50.864;12.186;2023-03-11T08:47:39;7.10;99.90
5621;DHT22;2832;50.864;12.186;2023-03-11T08:50:11;7.10;99.90
5621;DHT22;2832;50.864;12.186;2023-03-11T08:52:38;7.10;99.90
5621;DHT22;2832;50.864;12.186;2023-03-11T08:55:08;7.10;99.90
5621;DHT22;2832;50.864;12.186;2023-03-11T08:57:38;7.10;99.90
5621;DHT22;2832;50.864;12.186;2023-03-11T09:00:12;7.10;99.90
5621;DHT22;2832;50.864;12.186;2023-03-11T09:02:41;7.10;99.90
5621;DHT22;2832;50.864;12.186;2023-03-11T09:05:09;7.10;99.90
5621;DHT22;2832;50.864;12.186;2023-03-11T09:07:38;7.10;99.90
5621;DHT22;2832;50.864;12.186;2023-03-11T09:10:06;7.10;99.90
5621;DHT22;2832;50.864;12.186;2023-03-11T09:12:34;7.10;99.90
5621;DHT22;2832;50.864;12.186;2023-03-11T09:15:05;7.10;99.90
5621;DHT22;2832;50.864;12.186;2023-03-11T09:17:33;7.10;99.90
5621;DHT22;2832;50.864;12.186;2023-03-11T09:20:01;7.10;99.90
5621;DHT22;2832;50.864;12.186;2023-03-11T11:23:02;6.70;99.90
5621;DHT22;2832;50.864;12.186;2023-03-11T11:25:32;6.80;99.90
5621;DHT22;2832;50.864;12.186;2023-03-11T11:28:07;6.80;99.90
5621;DHT22;2832;50.864;12.186;2023-03-11T11:30:52;6.80;99.90
5621;DHT22;2832;50.864;12.186;2023-03-11T11:33:26;6.90;99.90
5621;DHT22;2832;50.864;12.186;2023-03-11T11:35:56;6.80;99.90
5621;DHT22;2832;50.864;12.186;2023-03-11T11:38:28;6.80;99.90
5621;DHT22;2832;50.864;12.186;2023-03-11T11:40:58;6.70;99.90
5621;DHT22;2832;50.864;12.186;2023-03-11T11:43:40;6.70;99.90
5621;DHT22;2832;50.864;12.186;2023-03-11T11:46:19;6.60;99.90
5621;DHT22;2832;50.864;12.186;2023-03-11T11:48:55;6.70;99.90
5621;DHT22;2832;50.864;12.186;2023-03-11T11:51:30;6.60;99.90
5621;DHT22;2832;50.864;12.186;2023-03-11T11:54:10;6.60;99.90
5621;DHT22;2832;50.864;12.186;2023-03-11T11:56:43;6.60;99.90
5621;DHT22;2832;50.864;12.186;2023-03-11T11:59:15;6.70;99.90
5621;DHT22;2832;50.864;12.186;2023-03-11T12:01:54;6.70;99.90
5621;DHT22;2832;50.864;12.186;2023-03-11T12:04:37;6.70;99.90
5621;DHT22;2832;50.864;12.186;2023-03-11T12:07:26;6.70;99.90
5621;DHT22;2832;50.864;12.186;2023-03-11T12:10:02;6.70;99.90
5621;DHT22;2832;50.864;12.186;2023-03-11T12:12:35;6.80;99.90
5621;DHT22;2832;50.864;12.186;2023-03-11T12:15:13;6.90;99.90
5621;DHT22;2832;50.864;12.186;2023-03-11T12:17:47;6.90;99.90
5621;DHT22;2832;50.864;12.186;2023-03-11T12:20:22;7.00;99.90
5621;DHT22;2832;50.864;12.186;2023-03-11T12:23:18;7.00;99.90
5621;DHT22;2832;50.864;12.186;2023-03-11T12:26:02;7.00;99.90
5621;DHT22;2832;50.864;12.186;2023-03-11T12:28:39;6.90;99.90
5621;DHT22;2832;50.864;12.186;2023-03-11T12:31:11;6.90;99.90
5621;DHT22;2832;50.864;12.186;2023-03-11T12:33:41;6.90;99.90
5621;DHT22;2832;50.864;12.186;2023-03-11T12:36:28;6.90;99.90
5621;DHT22;2832;50.864;12.186;2023-03-11T12:38:56;6.90;99.90
5621;DHT22;2832;50.864;12.186;2023-03-11T12:41:30;6.90;99.90
5621;DHT22;2832;50.864;12.186;2023-03-11T12:44:19;6.90;99.90
5621;DHT22;2832;50.864;12.186;2023-03-11T12:47:10;6.80;99.90
5621;DHT22;2832;50.864;12.186;2023-03-11T12:49:44;6.80;99.90
5621;DHT22;2832;50.864;12.186;2023-03-11T12:52:21;6.70;99.90
5621;DHT22;2832;50.864;12.186;2023-03-11T12:55:23;6.70;99.90
5621;DHT22;2832;50.864;12.186;2023-03-11T12:58:00;6.70;99.90
5621;DHT22;2832;50.864;12.186;2023-03-11T13:00:44;6.70;99.90
5621;DHT22;2832;50.864;12.186;2023-03-11T13:03:31;6.70;99.90
5621;DHT22;2832;50.864;12.186;2023-03-11T13:06:25;6.70;99.90
5621;DHT22;2832;50.864;12.186;2023-03-11T13:08:56;6.70;99.90
5621;DHT22;2832;50.864;12.186;2023-03-11T13:11:42;6.80;99.90
5621;DHT22;2832;50.864;12.186;2023-03-11T13:14:25;6.80;99.90
5621;DHT22;2832;50.864;12.186;2023-03-11T13:16:56;6.70;99.90
5621;DHT22;2832;50.864;12.186;2023-03-11T13:19:34;6.70;99.90
5621;DHT22;2832;50.864;12.186;2023-03-11T13:22:04;6.60;99.90
5621;DHT22;2832;50.864;12.186;2023-03-11T13:24:50;6.60;99.90
5621;DHT22;2832;50.864;12.186;2023-03-11T13:27:38;6.60;99.90
5621;DHT22;2832;50.864;12.186;2023-03-11T13:30:15;6.60;99.90
5621;DHT22;2832;50.864;12.186;2023-03-11T13:33:14;6.60;99.90
5621;DHT22;2832;50.864;12.186;2023-03-11T13:35:58;6.60;99.90
5621;DHT22;2832;50.864;12.186;2023-03-11T13:38:42;6.60;99.90
5621;DHT22;2832;50.864;12.186;2023-03-11T13:41:15;6.60;99.90
5621;DHT22;2832;50.864;12.186;2023-03-11T13:43:46;6.60;99.90
5621;DHT22;2832;50.864;12.186;2023-03-11T13:46:25;6.70;99.90
5621;DHT22;2832;50.864;12.186;2023-03-11T13:49:01;6.60;99.90
5621;DHT22;2832;50.864;12.186;2023-03-11T13:51:36;6.70;99.90
5621;DHT22;2832;50.864;12.186;2023-03-11T15:54:47;6.90;99.90
5621;DHT22;2832;50.864;12.186;2023-03-11T15:57:21;6.90;99.90
5621;DHT22;2832;50.864;12.186;2023-03-11T15:59:53;7.00;99.90
5621;DHT22;2832;50.864;12.186;2023-03-11T16:02:24;7.00;99.90
5621;DHT22;2832;50.864;12.186;2023-03-11T16:04:54;7.10;99.90
5621;DHT22;2832;50.864;12.186;2023-03-11T16:07:26;7.00;99.90
5621;DHT22;2832;50.864;12.186;2023-03-11T16:09:56;7.10;99.90
5621;DHT22;2832;50.864;12.186;2023-03-11T16:12:24;7.00;99.90
5621;DHT22;2832;50.864;12.186;2023-03-11T16:14:53;7.00;99.90
5621;DHT22;2832;50.864;12.186;2023-03-11T16:17:21;7.00;99.90
5621;DHT22;2832;50.864;12.186;2023-03-11T16:19:50;6.80;99.90
5621;DHT22;2832;50.864;12.186;2023-03-11T16:22:20;6.80;99.90
5621;DHT22;2832;50.864;12.186;2023-03-11T16:24:51;6.70;99.90
5621;DHT22;2832;50.864;12.186;2023-03-11T16:27:22;6.70;99.90
5621;DHT22;2832;50.864;12.186;2023-03-11T16:29:50;6.60;99.90
5621;DHT22;2832;50.864;12.186;2023-03-11T16:32:18;6.60;99.90
5621;DHT22;2832;50.864;12.186;2023-03-11T16:34:45;6.70;99.90
5621;DHT22;2832;50.864;12.186;2023-03-11T16:37:15;6.70;99.90
5621;DHT22;2832;50.864;12.186;2023-03-11T16:39:45;6.70;99.90
5621;DHT22;2832;50.864;12.186;2023-03-11T16:42:21;6.70;99.90
5621;DHT22;2832;50.864;12.186;2023-03-11T16:44:50;6.70;99.90
5621;DHT22;2832;50.864;12.186;2023-03-11T16:47:18;6.80;99.90
5621;DHT22;2832;50.864;12.186;2023-03-11T16:49:46;6.80;99.90
5621;DHT22;2832;50.864;12.186;2023-03-11T16:52:16;6.90;99.90
5621;DHT22;2832;50.864;12.186;2023-03-11T16:54:49;6.80;99.90
5621;DHT22;2832;50.864;12.186;2023-03-11T16:57:19;6.70;99.90
5621;DHT22;2832;50.864;12.186;2023-03-11T16:59:53;6.70;99.90
5621;DHT22;2832;50.864;12.186;2023-03-11T17:02:22;6.60;99.90
5621;DHT22;2832;50.864;12.186;2023-03-11T17:04:50;6.60;99.90
5621;DHT22;2832;50.864;12.186;2023-03-11T17:07:19;6.70;99.90
5621;DHT22;2832;50.864;12.186;2023-03-11T17:09:50;6.70;99.90
5621;DHT22;2832;50.864;12.186;2023-03-11T17:12:18;6.80;99.90
5621;DHT22;2832;50.864;12.186;2023-03-11T17:14:46;6.80;99.90
5621;DHT22;2832;50.864;12.186;2023-03-11T17:17:18;6.80;99.90
5621;DHT22;2832;50.864;12.186;2023-03-11T17:19:47;6.70;99.90
5621;DHT22;2832;50.864;12.186;2023-03-11T17:22:15;6.70;99.90
5621;DHT22;2832;50.864;12.186;2023-03-11T17:24:43;6.70;99.90
5621;DHT22;2832;50.864;12.186;2023-03-11T17:27:11;6.70;99.90
5621;DHT22;2832;50.864;12.186;2023-03-11T17:29:40;6.70;99.90
5621;DHT22;2832;50.864;12.186;2023-03-11T17:32:08;6.80;99.90
5621;DHT22;2832;50.864;12.186;2023-03-11T17:34:40;6.70;99.90
5621;DHT22;2832;50.864;12.186;2023-03-11T17:37:09;6.80;99.90
5621;DHT22;2832;50.864;12.186;2023-03-11T17:39:37;6.90;99.90
5621;DHT22;2832;50.864;12.186;2023-03-11T17:42:05;6.90;99.90
5621;DHT22;2832;50.864;12.186;2023-03-11T17:44:33;6.80;99.90
5621;DHT22;2832;50.864;12.186;2023-03-11T17:47:00;6.70;99.90
5621;DHT22;2832;50.864;12.186;2023-03-11T17:49:28;6.70;99.90
5621;DHT22;2832;50.864;12.186;2023-03-11T17:51:57;6.70;99.90
5621;DHT22;2832;50.864;12.186;2023-03-11T17:54:25;6.60;99.90
5621;DHT22;2832;50.864;12.186;2023-03-11T17:56:53;6.50;99.90
5621;DHT22;2832;50.864;12.186;2023-03-11T17:59:22;6.30;99.90
5621;DHT22;2832;50.864;12.186;2023-03-11T18:01:50;6.30;99.90
5621;DHT22;2832;50.864;12.186;2023-03-11T18:04:18;6.30;99.90
5621;DHT22;2832;50.864;12.186;2023-03-11T18:06:45;6.30;99.90
5621;DHT22;2832;50.864;12.186;2023-03-11T18:09:14;6.20;99.90
5621;DHT22;2832;50.864;12.186;2023-03-11T18:11:43;6.30;99.90
5621;DHT22;2832;50.864;12.186;2023-03-11T18:14:12;6.20;99.90
5621;DHT22;2832;50.864;12.186;2023-03-11T18:16:40;6.20;99.90
5621;DHT22;2832;50.864;12.186;2023-03-11T18:19:08;6.20;99.90
5621;DHT22;2832;50.864;12.186;2023-03-11T18:21:36;6.20;99.90
5621;DHT22;2832;50.864;12.186;2023-03-11T18:24:04;6.30;99.90
5621;DHT22;2832;50.864;12.186;2023-03-11T18:26:39;6.40;99.90
5621;DHT22;2832;50.864;12.186;2023-03-11T18:29:15;6.40;99.90
5621;DHT22;2832;50.864;12.186;2023-03-11T18:31:43;6.40;99.90
5621;DHT22;2832;50.864;12.186;2023-03-11T18:34:11;6.30;99.90
5621;DHT22;2832;50.864;12.186;2023-03-11T18:36:41;6.40;99.90
5621;DHT22;2832;50.864;12.186;2023-03-11T18:39:09;6.40;99.90
5621;DHT22;2832;50.864;12.186;2023-03-11T18:41:41;6.40;99.90
5621;DHT22;2832;50.864;12.186;2023-03-11T18:44:09;6.40;99.90
5621;DHT22;2832;50.864;12.186;2023-03-11T18:46:37;6.30;99.90
5621;DHT22;2832;50.864;12.186;2023-03-11T18:49:09;6.30;99.90
5621;DHT22;2832;50.864;12.186;2023-03-11T18:51:37;6.20;99.90
5621;DHT22;2832;50.864;12.186;2023-03-11T18:54:07;6.20;99.90
5621;DHT22;2832;50.864;12.186;2023-03-11T18:56:35;6.10;99.90
5621;DHT22;2832;50.864;12.186;2023-03-11T18:59:04;6.10;99.90
5621;DHT22;2832;50.864;12.186;2023-03-11T19:01:34;6.10;99.90
5621;DHT22;2832;50.864;12.186;2023-03-11T19:04:01;6.00;99.90
5621;DHT22;2832;50.864;12.186;2023-03-11T19:06:29;6.00;99.90
5621;DHT22;2832;50.864;12.186;2023-03-11T19:08:58;6.00;99.90
5621;DHT22;2832;50.864;12.186;2023-03-11T19:11:26;6.00;99.90
5621;DHT22;2832;50.864;12.186;2023-03-11T19:13:55;6.00;99.90
5621;DHT22;2832;50.864;12.186;2023-03-11T19:16:24;6.00;99.90
5621;DHT22;2832;50.864;12.186;2023-03-11T19:18:55;6.00;99.90
5621;DHT22;2832;50.864;12.186;2023-03-11T19:21:27;5.90;99.90
5621;DHT22;2832;50.864;12.186;2023-03-11T19:24:01;6.00;99.90
5621;DHT22;2832;50.864;12.186;2023-03-11T19:26:32;6.00;99.90
5621;DHT22;2832;50.864;12.186;2023-03-11T19:29:01;6.00;99.90
5621;DHT22;2832;50.864;12.186;2023-03-11T19:31:30;6.00;99.90
5621;DHT22;2832;50.864;12.186;2023-03-11T19:33:58;6.10;99.90
5621;DHT22;2832;50.864;12.186;2023-03-11T19:36:26;6.00;99.90
5621;DHT22;2832;50.864;12.186;2023-03-11T19:38:55;6.00;99.90
5621;DHT22;2832;50.864;12.186;2023-03-11T19:41:24;6.00;99.90
5621;DHT22;2832;50.864;12.186;2023-03-11T19:43:53;6.10;99.90
5621;DHT22;2832;50.864;12.186;2023-03-11T19:46:23;6.00;99.90
5621;DHT22;2832;50.864;12.186;2023-03-11T19:48:52;6.00;99.90
5621;DHT22;2832;50.864;12.186;2023-03-11T19:51:21;6.00;99.90
5621;DHT22;2832;50.864;12.186;2023-03-11T19:53:50;6.00;99.90
5621;DHT22;2832;50.864;12.186;2023-03-11T19:56:18;5.90;99.90
5621;DHT22;2832;50.864;12.186;2023-03-11T19:58:46;5.90;99.90
5621;DHT22;2832;50.864;12.186;2023-03-11T20:01:16;5.90;99.90
5621;DHT22;2832;50.864;12.186;2023-03-11T20:03:45;5.80;99.90
5621;DHT22;2832;50.864;12.186;2023-03-11T20:06:14;5.80;99.90
5621;DHT22;2832;50.864;12.186;2023-03-11T20:08:44;5.80;99.90
5621;DHT22;2832;50.864;12.186;2023-03-11T20:11:12;5.80;99.90
5621;DHT22;2832;50.864;12.186;2023-03-11T20:13:41;5.80;99.90
5621;DHT22;2832;50.864;12.186;2023-03-11T20:16:10;5.80;99.90
5621;DHT22;2832;50.864;12.186;2023-03-11T20:18:39;5.80;99.90
5621;DHT22;2832;50.864;12.186;2023-03-11T20:21:08;5.70;99.90
5621;DHT22;2832;50.864;12.186;2023-03-11T20:23:40;5.60;99.90
5621;DHT22;2832;50.864;12.186;2023-03-11T20:26:11;5.60;99.90
5621;DHT22;2832;50.864;12.186;2023-03-11T20:28:40;5.70;99.90
5621;DHT22;2832;50.864;12.186;2023-03-11T20:31:12;5.60;99.90
5621;DHT22;2832;50.864;12.186;2023-03-11T20:33:44;5.70;99.90
5621;DHT22;2832;50.864;12.186;2023-03-11T20:36:18;5.60;99.90
5621;DHT22;2832;50.864;12.186;2023-03-11T20:38:51;5.60;99.90
5621;DHT22;2832;50.864;12.186;2023-03-11T20:41:23;5.50;99.90
5621;DHT22;2832;50.864;12.186;2023-03-11T20:43:52;5.60;99.90
5621;DHT22;2832;50.864;12.186;2023-03-11T20:46:20;5.70;99.90
5621;DHT22;2832;50.864;12.186;2023-03-11T20:48:50;5.60;99.90
5621;DHT22;2832;50.864;12.186;2023-03-11T20:51:18;5.60;99.90
5621;DHT22;2832;50.864;12.186;2023-03-11T20:53:50;5.60;99.90
5621;DHT22;2832;50.864;12.186;2023-03-11T20:56:20;5.70;99.90
5621;DHT22;2832;50.864;12.186;2023-03-11T20:58:50;5.70;99.90
5621;DHT22;2832;50.864;12.186;2023-03-11T21:01:25;5.70;99.90
5621;DHT22;2832;50.864;12.186;2023-03-11T21:03:57;5.60;99.90
5621;DHT22;2832;50.864;12.186;2023-03-11T21:06:29;5.70;99.90
5621;DHT22;2832;50.864;12.186;2023-03-11T21:09:02;5.70;99.90
5621;DHT22;2832;50.864;12.186;2023-03-11T21:11:32;5.60;99.90
5621;DHT22;2832;50.864;12.186;2023-03-11T21:14:01;5.60;99.90
5621;DHT22;2832;50.864;12.186;2023-03-11T21:16:31;5.60;99.90
5621;DHT22;2832;50.864;12.186;2023-03-11T21:19:00;5.50;99.90
5621;DHT22;2832;50.864;12.186;2023-03-11T21:21:32;5.60;99.90
5621;DHT22;2832;50.864;12.186;2023-03-11T21:24:05;5.50;99.90
5621;DHT22;2832;50.864;12.186;2023-03-11T21:26:34;5.50;99.90
5621;DHT22;2832;50.864;12.186;2023-03-11T21:29:02;5.50;99.90
5621;DHT22;2832;50.864;12.186;2023-03-11T21:31:32;5.50;99.90
5621;DHT22;2832;50.864;12.186;2023-03-11T21:34:01;5.50;99.90
5621;DHT22;2832;50.864;12.186;2023-03-11T21:36:31;5.40;99.90
5621;DHT22;2832;50.864;12.186;2023-03-11T21:38:59;5.40;99.90
5621;DHT22;2832;50.864;12.186;2023-03-11T21:41:32;5.30;99.90
5621;DHT22;2832;50.864;12.186;2023-03-11T21:44:00;5.30;99.90
5621;DHT22;2832;50.864;12.186;2023-03-11T21:46:29;5.30;99.90
5621;DHT22;2832;50.864;12.186;2023-03-11T21:48:58;5.40;99.90
5621;DHT22;2832;50.864;12.186;2023-03-11T21:51:26;5.40;99.90
5621;DHT22;2832;50.864;12.186;2023-03-11T21:53:54;5.40;99.90
5621;DHT22;2832;50.864;12.186;2023-03-11T21:56:36;5.50;99.90
